sensor_id;sensor_type;location;lat;lon;timestamp;pressure;altitude;pressure_sealevel;temperature;humidity
37202;BME280;37799;52.390;6.136;2022-12-05T00:01:19;101881.50;;;3.52;100.00
37202;BME280;37799;52.390;6.136;2022-12-05T00:03:46;101888.41;;;3.58;100.00
37202;BME280;37799;52.390;6.136;2022-12-05T00:06:12;101873.97;;;3.63;100.00
37202;BME280;37799;52.390;6.136;2022-12-05T00:08:38;101875.06;;;3.74;100.00
37202;BME280;37799;52.390;6.136;2022-12-05T00:11:03;101886.53;;;3.49;100.00
37202;BME280;37799;52.390;6.136;2022-12-05T00:13:28;101879.72;;;3.49;100.00
37202;BME280;37799;52.390;6.136;2022-12-05T00:15:54;101873.88;;;3.57;100.00
37202;BME280;37799;52.390;6.136;2022-12-05T00:18:19;101873.88;;;3.57;100.00
37202;BME280;37799;52.390;6.136;2022-12-05T00:20:46;101880.13;;;3.71;100.00
37202;BME280;37799;52.390;6.136;2022-12-05T00:23:11;101877.09;;;3.46;100.00
37202;BME280;37799;52.390;6.136;2022-12-05T00:25:37;101879.97;;;3.63;100.00
37202;BME280;37799;52.390;6.136;2022-12-05T00:28:02;101877.25;;;3.54;100.00
37202;BME280;37799;52.390;6.136;2022-12-05T00:30:27;101881.41;;;3.49;100.00
37202;BME280;37799;52.390;6.136;2022-12-05T00:32:53;101876.38;;;3.52;100.00
37202;BME280;37799;52.390;6.136;2022-12-05T00:35:18;101880.75;;;3.59;100.00
37202;BME280;37799;52.390;6.136;2022-12-05T00:37:43;101884.06;;;3.53;100.00
37202;BME280;37799;52.390;6.136;2022-12-05T00:40:09;101877.47;;;3.65;100.00
37202;BME280;37799;52.390;6.136;2022-12-05T00:42:35;101869.03;;;3.72;100.00
37202;BME280;37799;52.390;6.136;2022-12-05T00:45:00;101882.50;;;3.62;100.00
37202;BME280;37799;52.390;6.136;2022-12-05T00:47:25;101873.06;;;3.59;100.00
37202;BME280;37799;52.390;6.136;2022-12-05T00:49:50;101876.75;;;3.73;100.00
37202;BME280;37799;52.390;6.136;2022-12-05T00:52:16;101883.53;;;3.70;100.00
37202;BME280;37799;52.390;6.136;2022-12-05T00:54:42;101882.00;;;3.79;100.00
37202;BME280;37799;52.390;6.136;2022-12-05T00:57:07;101879.34;;;3.75;100.00
37202;BME280;37799;52.390;6.136;2022-12-05T00:59:32;101880.06;;;3.68;100.00
37202;BME280;37799;52.390;6.136;2022-12-05T01:01:58;101892.88;;;3.68;100.00
37202;BME280;37799;52.390;6.136;2022-12-05T01:04:24;101887.03;;;3.75;100.00
37202;BME280;37799;52.390;6.136;2022-12-05T01:06:53;101887.75;;;3.68;100.00
37202;BME280;37799;52.390;6.136;2022-12-05T01:09:19;101885.47;;;3.83;100.00
37202;BME280;37799;52.390;6.136;2022-12-05T01:11:45;101879.56;;;3.87;100.00
37202;BME280;37799;52.390;6.136;2022-12-05T01:14:13;101888.94;;;3.85;100.00
37202;BME280;37799;52.390;6.136;2022-12-05T01:16:40;101879.53;;;3.84;100.00
37202;BME280;37799;52.390;6.136;2022-12-05T01:19:11;101880.19;;;3.74;100.00
37202;BME280;37799;52.390;6.136;2022-12-05T01:21:36;101882.75;;;3.74;100.00
37202;BME280;37799;52.390;6.136;2022-12-05T01:24:02;101879.34;;;3.75;100.00
37202;BME280;37799;52.390;6.136;2022-12-05T01:26:27;101880.97;;;3.70;100.00
37202;BME280;37799;52.390;6.136;2022-12-05T01:28:52;101882.63;;;3.68;100.00
37202;BME280;37799;52.390;6.136;2022-12-05T01:33:52;101891.25;;;3.73;100.00
37202;BME280;37799;52.390;6.136;2022-12-05T01:36:18;101890.28;;;3.65;100.00
37202;BME280;37799;52.390;6.136;2022-12-05T01:38:44;101889.59;;;3.75;100.00
37202;BME280;37799;52.390;6.136;2022-12-05T01:41:17;101896.63;;;3.85;100.00
37202;BME280;37799;52.390;6.136;2022-12-05T01:44:02;101893.84;;;3.74;100.00
37202;BME280;37799;52.390;6.136;2022-12-05T01:46:31;101897.00;;;3.61;100.00
37202;BME280;37799;52.390;6.136;2022-12-05T01:49:06;101898.72;;;3.61;100.00
37202;BME280;37799;52.390;6.136;2022-12-05T01:51:34;101894.72;;;3.75;100.00
37202;BME280;37799;52.390;6.136;2022-12-05T01:54:02;101895.25;;;3.59;100.00
37202;BME280;37799;52.390;6.136;2022-12-05T01:56:30;101897.97;;;3.65;100.00
37202;BME280;37799;52.390;6.136;2022-12-05T01:58:57;101883.88;;;3.44;100.00
37202;BME280;37799;52.390;6.136;2022-12-05T02:01:23;101891.06;;;3.62;100.00
37202;BME280;37799;52.390;6.136;2022-12-05T02:03:51;101891.84;;;3.58;100.00
37202;BME280;37799;52.390;6.136;2022-12-05T02:06:20;101897.78;;;3.55;100.00
37202;BME280;37799;52.390;6.136;2022-12-05T02:08:47;101885.25;;;3.71;100.00
37202;BME280;37799;52.390;6.136;2022-12-05T02:11:12;101886.78;;;3.63;100.00
37202;BME280;37799;52.390;6.136;2022-12-05T02:13:51;101887.56;;;3.59;100.00
37202;BME280;37799;52.390;6.136;2022-12-05T02:27:48;101867.13;;;3.60;100.00
37202;BME280;37799;52.390;6.136;2022-12-05T02:30:22;101872.16;;;3.55;100.00
37202;BME280;37799;52.390;6.136;2022-12-05T02:33:10;101870.75;;;3.71;100.00
37202;BME280;37799;52.390;6.136;2022-12-05T02:36:26;101870.47;;;3.58;100.00
37202;BME280;37799;52.390;6.136;2022-12-05T02:39:09;101870.53;;;3.61;100.00
37202;BME280;37799;52.390;6.136;2022-12-05T02:42:14;101873.03;;;3.56;100.00
37202;BME280;37799;52.390;6.136;2022-12-05T02:44:46;101867.94;;;3.59;100.00
37202;BME280;37799;52.390;6.136;2022-12-05T02:47:16;101867.00;;;3.54;100.00
37202;BME280;37799;52.390;6.136;2022-12-05T02:49:43;101866.13;;;3.52;100.00
37202;BME280;37799;52.390;6.136;2022-12-05T02:52:12;101867.28;;;3.69;100.00
37202;BME280;37799;52.390;6.136;2022-12-05T02:54:41;101867.16;;;3.63;100.00
37202;BME280;37799;52.390;6.136;2022-12-05T02:57:08;101860.19;;;3.54;100.00
37202;BME280;37799;52.390;6.136;2022-12-05T02:59:34;101865.66;;;3.73;100.00
37202;BME280;37799;52.390;6.136;2022-12-05T03:01:59;101864.72;;;3.68;100.00
37202;BME280;37799;52.390;6.136;2022-12-05T03:04:26;101867.28;;;3.68;100.00
37202;BME280;37799;52.390;6.136;2022-12-05T03:06:57;101855.13;;;3.58;100.00
37202;BME280;37799;52.390;6.136;2022-12-05T03:09:33;101858.66;;;3.64;100.00
37202;BME280;37799;52.390;6.136;2022-12-05T03:12:14;101852.75;;;3.67;100.00
37202;BME280;37799;52.390;6.136;2022-12-05T03:14:53;101857.91;;;3.70;100.00
37202;BME280;37799;52.390;6.136;2022-12-05T03:17:24;101859.66;;;3.72;100.00
37202;BME280;37799;52.390;6.136;2022-12-05T03:20:02;101860.34;;;3.64;100.00
37202;BME280;37799;52.390;6.136;2022-12-05T03:22:46;101868.22;;;3.73;100.00
37202;BME280;37799;52.390;6.136;2022-12-05T03:25:14;101867.41;;;3.75;100.00
37202;BME280;37799;52.390;6.136;2022-12-05T03:27:51;101865.66;;;3.74;100.00
37202;BME280;37799;52.390;6.136;2022-12-05T03:30:20;101859.06;;;3.87;100.00
37202;BME280;37799;52.390;6.136;2022-12-05T03:33:07;101865.84;;;3.83;100.00
37202;BME280;37799;52.390;6.136;2022-12-05T03:35:39;101876.25;;;3.91;100.00
37202;BME280;37799;52.390;6.136;2022-12-05T03:38:10;101875.47;;;3.95;100.00
37202;BME280;37799;52.390;6.136;2022-12-05T03:46:23;101878.81;;;3.91;100.00
37202;BME280;37799;52.390;6.136;2022-12-05T03:48:58;101873.63;;;3.90;100.00
37202;BME280;37799;52.390;6.136;2022-12-05T03:51:46;101874.56;;;3.93;100.00
37202;BME280;37799;52.390;6.136;2022-12-05T03:54:21;101878.19;;;4.04;100.00
37202;BME280;37799;52.390;6.136;2022-12-05T03:56:57;101883.97;;;3.94;100.00
37202;BME280;37799;52.390;6.136;2022-12-05T03:59:36;101888.50;;;4.07;100.00
37202;BME280;37799;52.390;6.136;2022-12-05T04:02:14;101878.44;;;4.20;100.00
37202;BME280;37799;52.390;6.136;2022-12-05T04:04:49;101878.25;;;4.07;100.00
37202;BME280;37799;52.390;6.136;2022-12-05T04:07:18;101882.41;;;4.02;100.00
37202;BME280;37799;52.390;6.136;2022-12-05T04:09:49;101878.03;;;3.95;100.00
37202;BME280;37799;52.390;6.136;2022-12-05T04:12:25;101875.53;;;4.00;100.00
37202;BME280;37799;52.390;6.136;2022-12-05T04:14:55;101879.13;;;4.09;100.00
37202;BME280;37799;52.390;6.136;2022-12-05T04:17:45;101877.66;;;4.25;100.00
37202;BME280;37799;52.390;6.136;2022-12-05T04:20:16;101884.25;;;4.09;100.00
37202;BME280;37799;52.390;6.136;2022-12-05T04:23:02;101886.81;;;4.09;100.00
37202;BME280;37799;52.390;6.136;2022-12-05T04:25:38;101874.00;;;4.09;100.00
37202;BME280;37799;52.390;6.136;2022-12-05T04:28:24;101882.63;;;4.16;100.00
37202;BME280;37799;52.390;6.136;2022-12-05T04:31:14;101891.19;;;4.17;100.00
37202;BME280;37799;52.390;6.136;2022-12-05T04:33:54;101881.00;;;4.18;100.00
37202;BME280;37799;52.390;6.136;2022-12-05T04:36:37;101878.44;;;4.20;100.00
37202;BME280;37799;52.390;6.136;2022-12-05T04:39:09;101878.50;;;4.23;100.00
37202;BME280;37799;52.390;6.136;2022-12-05T04:41:39;101872.66;;;4.31;100.00
37202;BME280;37799;52.390;6.136;2022-12-05T04:44:08;101880.28;;;4.28;100.00
37202;BME280;37799;52.390;6.136;2022-12-05T04:46:37;101884.53;;;4.28;100.00
37202;BME280;37799;52.390;6.136;2022-12-05T04:49:07;101880.47;;;4.39;100.00
37202;BME280;37799;52.390;6.136;2022-12-05T04:51:35;101879.63;;;4.40;100.00
37202;BME280;37799;52.390;6.136;2022-12-05T04:54:09;101873.53;;;4.32;100.00
37202;BME280;37799;52.390;6.136;2022-12-05T04:56:40;101880.16;;;4.21;100.00
37202;BME280;37799;52.390;6.136;2022-12-05T04:59:07;101880.22;;;4.24;100.00
37202;BME280;37799;52.390;6.136;2022-12-05T05:01:36;101882.19;;;4.40;100.00
37202;BME280;37799;52.390;6.136;2022-12-05T05:04:11;101879.53;;;4.34;100.00
37202;BME280;37799;52.390;6.136;2022-12-05T05:06:39;101884.56;;;4.29;100.00
37202;BME280;37799;52.390;6.136;2022-12-05T05:09:05;101876.94;;;4.31;100.00
37202;BME280;37799;52.390;6.136;2022-12-05T05:11:32;101875.56;;;4.54;100.00
37202;BME280;37799;52.390;6.136;2022-12-05T05:13:58;101877.84;;;4.36;100.00
37202;BME280;37799;52.390;6.136;2022-12-05T05:16:26;101878.75;;;4.38;100.00
37202;BME280;37799;52.390;6.136;2022-12-05T05:18:52;101875.44;;;4.45;100.00
37202;BME280;37799;52.390;6.136;2022-12-05T05:21:29;101873.66;;;4.41;100.00
37202;BME280;37799;52.390;6.136;2022-12-05T05:23:56;101877.22;;;4.49;100.00
37202;BME280;37799;52.390;6.136;2022-12-05T05:26:22;101877.16;;;4.46;100.00
37202;BME280;37799;52.390;6.136;2022-12-05T05:28:48;101878.00;;;4.45;100.00
37202;BME280;37799;52.390;6.136;2022-12-05T05:31:15;101884.78;;;4.41;100.00
37202;BME280;37799;52.390;6.136;2022-12-05T05:33:40;101893.31;;;4.42;100.00
37202;BME280;37799;52.390;6.136;2022-12-05T05:36:08;101897.69;;;4.46;100.00
37202;BME280;37799;52.390;6.136;2022-12-05T05:38:36;101883.38;;;4.62;100.00
37202;BME280;37799;52.390;6.136;2022-12-05T05:41:02;101883.94;;;4.42;100.00
37202;BME280;37799;52.390;6.136;2022-12-05T05:43:27;101887.28;;;4.37;100.00
37202;BME280;37799;52.390;6.136;2022-12-05T05:45:53;101880.47;;;4.39;100.00
37202;BME280;37799;52.390;6.136;2022-12-05T05:48:18;101884.06;;;4.50;100.00
37202;BME280;37799;52.390;6.136;2022-12-05T05:50:43;101884.06;;;4.50;100.00
37202;BME280;37799;52.390;6.136;2022-12-05T05:53:08;101887.56;;;4.55;100.00
37202;BME280;37799;52.390;6.136;2022-12-05T05:55:34;101890.25;;;4.63;100.00
37202;BME280;37799;52.390;6.136;2022-12-05T05:57:59;101887.56;;;4.55;100.00
37202;BME280;37799;52.390;6.136;2022-12-05T06:00:24;101888.50;;;4.60;100.00
37202;BME280;37799;52.390;6.136;2022-12-05T06:02:49;101888.47;;;4.57;100.00
37202;BME280;37799;52.390;6.136;2022-12-05T06:05:15;101888.56;;;4.65;100.00
37202;BME280;37799;52.390;6.136;2022-12-05T06:07:40;101889.34;;;4.59;100.00
37202;BME280;37799;52.390;6.136;2022-12-05T06:10:06;101890.97;;;4.54;100.00
37202;BME280;37799;52.390;6.136;2022-12-05T06:12:31;101896.19;;;4.60;100.00
37202;BME280;37799;52.390;6.136;2022-12-05T06:14:56;101892.94;;;4.70;100.00
37202;BME280;37799;52.390;6.136;2022-12-05T06:17:22;101892.03;;;4.68;100.00
37202;BME280;37799;52.390;6.136;2022-12-05T06:19:47;101892.97;;;4.73;100.00
37202;BME280;37799;52.390;6.136;2022-12-05T06:22:12;101897.13;;;4.67;100.00
37202;BME280;37799;52.390;6.136;2022-12-05T06:24:37;101885.97;;;4.63;100.00
37202;BME280;37799;52.390;6.136;2022-12-05T06:27:03;101887.88;;;4.77;100.00
37202;BME280;37799;52.390;6.136;2022-12-05T06:29:29;101889.38;;;4.62;100.00
37202;BME280;37799;52.390;6.136;2022-12-05T06:31:54;101892.00;;;4.65;100.00
37202;BME280;37799;52.390;6.136;2022-12-05T06:34:19;101889.41;;;4.65;100.00
37202;BME280;37799;52.390;6.136;2022-12-05T06:36:44;101895.41;;;4.66;100.00
37202;BME280;37799;52.390;6.136;2022-12-05T06:39:10;101895.41;;;4.64;100.00
37202;BME280;37799;52.390;6.136;2022-12-05T06:41:35;101895.41;;;4.66;100.00
37202;BME280;37799;52.390;6.136;2022-12-05T06:44:00;101893.84;;;4.76;100.00
37202;BME280;37799;52.390;6.136;2022-12-05T06:46:25;101909.28;;;4.79;100.00
37202;BME280;37799;52.390;6.136;2022-12-05T06:48:52;101891.22;;;4.69;100.00
37202;BME280;37799;52.390;6.136;2022-12-05T06:51:18;101893.81;;;4.72;100.00
37202;BME280;37799;52.390;6.136;2022-12-05T06:53:44;101896.34;;;4.69;100.00
37202;BME280;37799;52.390;6.136;2022-12-05T06:56:12;101887.72;;;4.66;100.00
37202;BME280;37799;52.390;6.136;2022-12-05T06:58:41;101891.22;;;4.69;100.00
37202;BME280;37799;52.390;6.136;2022-12-05T07:01:11;101894.69;;;4.74;100.00
37202;BME280;37799;52.390;6.136;2022-12-05T07:03:54;101895.53;;;4.72;100.00
37202;BME280;37799;52.390;6.136;2022-12-05T07:06:20;101897.97;;;4.64;100.00
37202;BME280;37799;52.390;6.136;2022-12-05T07:08:45;101898.00;;;4.67;100.00
37202;BME280;37799;52.390;6.136;2022-12-05T07:11:11;101901.59;;;4.79;100.00
37202;BME280;37799;52.390;6.136;2022-12-05T07:13:36;101905.03;;;4.79;100.00
37202;BME280;37799;52.390;6.136;2022-12-05T07:16:02;101908.44;;;4.80;100.00
37202;BME280;37799;52.390;6.136;2022-12-05T07:18:28;101913.50;;;4.73;100.00
37202;BME280;37799;52.390;6.136;2022-12-05T07:20:58;101912.66;;;4.74;100.00
37202;BME280;37799;52.390;6.136;2022-12-05T07:23:23;101912.84;;;4.87;100.00
37202;BME280;37799;52.390;6.136;2022-12-05T07:25:49;101919.50;;;4.76;100.00
37202;BME280;37799;52.390;6.136;2022-12-05T07:28:14;101923.81;;;4.77;100.00
37202;BME280;37799;52.390;6.136;2022-12-05T07:30:39;101923.88;;;4.81;100.00
37202;BME280;37799;52.390;6.136;2022-12-05T07:33:04;101923.09;;;4.85;100.00
37202;BME280;37799;52.390;6.136;2022-12-05T07:35:30;101922.31;;;4.91;100.00
37202;BME280;37799;52.390;6.136;2022-12-05T07:37:55;101923.94;;;4.86;100.00
37202;BME280;37799;52.390;6.136;2022-12-05T07:40:20;101923.06;;;4.84;100.00
37202;BME280;37799;52.390;6.136;2022-12-05T07:42:49;101919.66;;;4.83;100.00
37202;BME280;37799;52.390;6.136;2022-12-05T07:45:15;101923.88;;;4.81;100.00
37202;BME280;37799;52.390;6.136;2022-12-05T07:47:40;101920.44;;;4.81;100.00
37202;BME280;37799;52.390;6.136;2022-12-05T07:50:06;101922.25;;;4.86;100.00
37202;BME280;37799;52.390;6.136;2022-12-05T07:52:31;101929.09;;;4.86;100.00
37202;BME280;37799;52.390;6.136;2022-12-05T07:54:57;101936.03;;;4.93;100.00
37202;BME280;37799;52.390;6.136;2022-12-05T07:57:22;101929.97;;;4.88;100.00
37202;BME280;37799;52.390;6.136;2022-12-05T07:59:48;101930.13;;;4.98;100.00
37202;BME280;37799;52.390;6.136;2022-12-05T08:02:13;101936.16;;;5.02;100.00
37202;BME280;37799;52.390;6.136;2022-12-05T08:04:38;101936.13;;;4.99;100.00
37202;BME280;37799;52.390;6.136;2022-12-05T08:07:03;101942.22;;;5.07;100.00
37202;BME280;37799;52.390;6.136;2022-12-05T08:09:29;101940.63;;;5.14;100.00
37202;BME280;37799;52.390;6.136;2022-12-05T08:11:54;101947.44;;;5.13;100.00
37202;BME280;37799;52.390;6.136;2022-12-05T08:14:19;101946.59;;;5.14;100.00
37202;BME280;37799;52.390;6.136;2022-12-05T08:16:45;101952.66;;;5.19;100.00
37202;BME280;37799;52.390;6.136;2022-12-05T08:19:11;101950.91;;;5.15;100.00
37202;BME280;37799;52.390;6.136;2022-12-05T08:21:41;101949.06;;;5.07;100.00
37202;BME280;37799;52.390;6.136;2022-12-05T08:24:07;101951.75;;;5.16;100.00
37202;BME280;37799;52.390;6.136;2022-12-05T08:26:34;101952.59;;;5.13;100.00
37202;BME280;37799;52.390;6.136;2022-12-05T08:29:05;101946.75;;;5.23;100.00
37202;BME280;37799;52.390;6.136;2022-12-05T08:31:33;101960.56;;;5.33;100.00
37202;BME280;37799;52.390;6.136;2022-12-05T08:33:59;101953.56;;;5.21;100.00
37202;BME280;37799;52.390;6.136;2022-12-05T08:36:26;101965.59;;;5.24;100.00
37202;BME280;37799;52.390;6.136;2022-12-05T08:38:56;101964.91;;;5.36;100.00
37202;BME280;37799;52.390;6.136;2022-12-05T08:41:21;101965.66;;;5.31;100.00
37202;BME280;37799;52.390;6.136;2022-12-05T08:43:47;101966.47;;;5.27;100.00
37202;BME280;37799;52.390;6.136;2022-12-05T08:46:13;101969.03;;;5.26;100.00
37202;BME280;37799;52.390;6.136;2022-12-05T08:48:38;101968.91;;;5.18;100.00
37202;BME280;37799;52.390;6.136;2022-12-05T08:51:09;101963.75;;;5.15;100.00
37202;BME280;37799;52.390;6.136;2022-12-05T08:53:36;101968.84;;;5.12;100.00
37202;BME280;37799;52.390;6.136;2022-12-05T08:56:03;101963.84;;;5.21;100.00
37202;BME280;37799;52.390;6.136;2022-12-05T08:58:29;101966.28;;;5.12;100.00
37202;BME280;37799;52.390;6.136;2022-12-05T09:01:05;101973.16;;;5.16;100.00
37202;BME280;37799;52.390;6.136;2022-12-05T09:03:31;101965.53;;;5.21;100.00
37202;BME280;37799;52.390;6.136;2022-12-05T09:08:39;101963.69;;;5.12;100.00
37202;BME280;37799;52.390;6.136;2022-12-05T09:11:25;101967.19;;;5.17;100.00
37202;BME280;37799;52.390;6.136;2022-12-05T09:13:52;101968.97;;;5.21;100.00
37202;BME280;37799;52.390;6.136;2022-12-05T09:16:20;101970.59;;;5.16;100.00
37202;BME280;37799;52.390;6.136;2022-12-05T09:18:47;101977.56;;;5.23;100.00
37202;BME280;37799;52.390;6.136;2022-12-05T09:21:19;101973.31;;;5.25;100.00
37202;BME280;37799;52.390;6.136;2022-12-05T09:23:44;101975.09;;;5.32;100.00
37202;BME280;37799;52.390;6.136;2022-12-05T09:26:12;101974.94;;;5.20;100.00
37202;BME280;37799;52.390;6.136;2022-12-05T09:28:38;101983.53;;;5.22;100.00
37202;BME280;37799;52.390;6.136;2022-12-05T09:31:06;101979.28;;;5.24;100.00
37202;BME280;37799;52.390;6.136;2022-12-05T09:33:34;101983.63;;;5.28;100.00
37202;BME280;37799;52.390;6.136;2022-12-05T09:36:20;101989.63;;;5.30;100.00
37202;BME280;37799;52.390;6.136;2022-12-05T09:38:46;101986.19;;;5.28;100.00
37202;BME280;37799;52.390;6.136;2022-12-05T09:41:22;101982.78;;;5.31;100.00
37202;BME280;37799;52.390;6.136;2022-12-05T09:46:53;101996.66;;;5.44;100.00
37202;BME280;37799;52.390;6.136;2022-12-05T09:49:21;101989.75;;;5.38;100.00
37202;BME280;37799;52.390;6.136;2022-12-05T09:51:47;101992.34;;;5.41;100.00
37202;BME280;37799;52.390;6.136;2022-12-05T09:54:14;101984.81;;;5.55;100.00
37202;BME280;37799;52.390;6.136;2022-12-05T09:56:40;101989.13;;;5.56;100.00
37202;BME280;37799;52.390;6.136;2022-12-05T09:59:12;101988.19;;;5.48;100.00
37202;BME280;37799;52.390;6.136;2022-12-05T10:01:57;101994.91;;;5.40;100.00
37202;BME280;37799;52.390;6.136;2022-12-05T10:15:29;101989.63;;;5.29;100.00
37202;BME280;37799;52.390;6.136;2022-12-05T10:18:09;101993.38;;;5.54;100.00
37202;BME280;37799;52.390;6.136;2022-12-05T10:20:50;101993.22;;;5.42;100.00
37202;BME280;37799;52.390;6.136;2022-12-05T10:23:20;101988.13;;;5.45;100.00
37202;BME280;37799;52.390;6.136;2022-12-05T10:25:52;101988.78;;;5.30;100.00
37202;BME280;37799;52.390;6.136;2022-12-05T10:28:27;101987.19;;;5.40;100.00
37202;BME280;37799;52.390;6.136;2022-12-05T10:30:57;101982.97;;;5.43;100.00
37202;BME280;37799;52.390;6.136;2022-12-05T10:33:31;101976.09;;;5.44;100.00
37202;BME280;37799;52.390;6.136;2022-12-05T10:35:57;101980.31;;;5.37;100.00
37202;BME280;37799;52.390;6.136;2022-12-05T10:38:25;101979.44;;;5.35;100.00
37202;BME280;37799;52.390;6.136;2022-12-05T10:40:53;101976.22;;;5.50;100.00
37202;BME280;37799;52.390;6.136;2022-12-05T10:43:26;101972.81;;;5.54;100.00
37202;BME280;37799;52.390;6.136;2022-12-05T10:45:52;101977.00;;;5.46;100.00
37202;BME280;37799;52.390;6.136;2022-12-05T10:48:19;101965.97;;;5.53;100.00
37202;BME280;37799;52.390;6.136;2022-12-05T10:50:46;101982.97;;;5.43;100.00
37202;BME280;37799;52.390;6.136;2022-12-05T10:53:17;101971.84;;;5.46;100.00
37202;BME280;37799;52.390;6.136;2022-12-05T10:55:45;101979.50;;;5.40;100.00
37202;BME280;37799;52.390;6.136;2022-12-05T10:58:17;101974.47;;;5.49;100.00
37202;BME280;37799;52.390;6.136;2022-12-05T11:00:48;101979.72;;;5.58;100.00
37202;BME280;37799;52.390;6.136;2022-12-05T11:05:54;101976.31;;;5.59;100.00
37202;BME280;37799;52.390;6.136;2022-12-05T11:08:31;101968.59;;;5.57;100.00
37202;BME280;37799;52.390;6.136;2022-12-05T11:11:21;101972.13;;;5.67;100.00
37202;BME280;37799;52.390;6.136;2022-12-05T11:13:55;101965.38;;;5.74;100.00
37202;BME280;37799;52.390;6.136;2022-12-05T11:16:23;101967.88;;;5.69;100.00
37202;BME280;37799;52.390;6.136;2022-12-05T11:18:49;101973.84;;;5.67;100.00
37202;BME280;37799;52.390;6.136;2022-12-05T11:21:14;101971.25;;;5.65;100.00
37202;BME280;37799;52.390;6.136;2022-12-05T11:23:42;101967.91;;;5.72;100.00
37202;BME280;37799;52.390;6.136;2022-12-05T11:26:36;101967.03;;;5.72;100.00
37202;BME280;37799;52.390;6.136;2022-12-05T11:29:03;101966.19;;;5.71;100.00
37202;BME280;37799;52.390;6.136;2022-12-05T11:31:30;101972.22;;;5.73;100.00
37202;BME280;37799;52.390;6.136;2022-12-05T11:34:10;101969.59;;;5.70;100.00
37202;BME280;37799;52.390;6.136;2022-12-05T11:36:47;101974.75;;;5.72;100.00
37202;BME280;37799;52.390;6.136;2022-12-05T11:39:15;101975.56;;;5.66;100.00
37202;BME280;37799;52.390;6.136;2022-12-05T11:41:56;101968.75;;;5.73;100.00
37202;BME280;37799;52.390;6.136;2022-12-05T11:55:41;101958.31;;;5.59;100.00
37202;BME280;37799;52.390;6.136;2022-12-05T11:58:29;101964.38;;;5.61;100.00
37202;BME280;37799;52.390;6.136;2022-12-05T12:01:34;101960.78;;;5.50;100.00
37202;BME280;37799;52.390;6.136;2022-12-05T12:09:41;101950.53;;;5.50;100.00
37202;BME280;37799;52.390;6.136;2022-12-05T12:26:42;101967.56;;;5.45;100.00
37202;BME280;37799;52.390;6.136;2022-12-05T12:32:06;101965.75;;;5.35;100.00
37202;BME280;37799;52.390;6.136;2022-12-05T12:43:54;101955.47;;;5.35;100.00
37202;BME280;37799;52.390;6.136;2022-12-05T12:51:53;101945.03;;;5.22;100.00
37202;BME280;37799;52.390;6.136;2022-12-05T12:57:25;101945.09;;;5.28;100.00
37202;BME280;37799;52.390;6.136;2022-12-05T12:59:59;101945.03;;;5.22;100.00
37202;BME280;37799;52.390;6.136;2022-12-05T13:05:38;101936.38;;;5.19;100.00
37202;BME280;37799;52.390;6.136;2022-12-05T13:08:31;101931.25;;;5.17;100.00
37202;BME280;37799;52.390;6.136;2022-12-05T13:10:58;101932.97;;;5.18;100.00
37202;BME280;37799;52.390;6.136;2022-12-05T13:13:35;101929.63;;;5.22;100.00
37202;BME280;37799;52.390;6.136;2022-12-05T13:16:05;101928.81;;;5.28;100.00
37202;BME280;37799;52.390;6.136;2022-12-05T13:18:32;101931.38;;;5.28;100.00
37202;BME280;37799;52.390;6.136;2022-12-05T13:21:01;101935.66;;;5.26;100.00
37202;BME280;37799;52.390;6.136;2022-12-05T13:23:33;101939.78;;;5.16;100.00
37202;BME280;37799;52.390;6.136;2022-12-05T13:26:00;101928.66;;;5.17;100.00
37202;BME280;37799;52.390;6.136;2022-12-05T13:28:52;101929.63;;;5.22;100.00
37202;BME280;37799;52.390;6.136;2022-12-05T13:31:44;101928.69;;;5.20;100.00
37202;BME280;37799;52.390;6.136;2022-12-05T13:36:57;101933.28;;;5.43;100.00
37202;BME280;37799;52.390;6.136;2022-12-05T13:39:49;101934.75;;;5.24;100.00
37202;BME280;37799;52.390;6.136;2022-12-05T13:42:35;101939.81;;;5.19;100.00
37202;BME280;37799;52.390;6.136;2022-12-05T13:45:08;101938.19;;;5.24;100.00
37202;BME280;37799;52.390;6.136;2022-12-05T13:50:15;101944.88;;;5.13;100.00
37202;BME280;37799;52.390;6.136;2022-12-05T13:52:47;101940.56;;;5.09;100.00
37202;BME280;37799;52.390;6.136;2022-12-05T13:55:35;101948.34;;;5.15;100.00
37202;BME280;37799;52.390;6.136;2022-12-05T14:00:42;101939.72;;;5.10;100.00
37202;BME280;37799;52.390;6.136;2022-12-05T14:03:16;101945.66;;;5.08;100.00
37202;BME280;37799;52.390;6.136;2022-12-05T14:05:44;101953.50;;;5.18;100.00
37202;BME280;37799;52.390;6.136;2022-12-05T14:15:42;101946.44;;;5.02;100.00
37202;BME280;37799;52.390;6.136;2022-12-05T14:18:15;101944.72;;;5.01;100.00
37202;BME280;37799;52.390;6.136;2022-12-05T14:23:57;101942.19;;;5.04;100.00
37202;BME280;37799;52.390;6.136;2022-12-05T14:32:20;101941.25;;;4.99;100.00
37202;BME280;37799;52.390;6.136;2022-12-05T14:35:11;101937.88;;;5.03;100.00
37202;BME280;37799;52.390;6.136;2022-12-05T14:37:41;101936.09;;;4.96;100.00
37202;BME280;37799;52.390;6.136;2022-12-05T14:40:24;101937.03;;;5.04;100.00
37202;BME280;37799;52.390;6.136;2022-12-05T14:42:54;101937.84;;;5.00;100.00
37202;BME280;37799;52.390;6.136;2022-12-05T14:45:34;101941.34;;;5.05;100.00
37202;BME280;37799;52.390;6.136;2022-12-05T14:48:04;101939.72;;;5.10;100.00
37202;BME280;37799;52.390;6.136;2022-12-05T14:55:40;101944.75;;;5.04;100.00
37202;BME280;37799;52.390;6.136;2022-12-05T14:58:16;101942.13;;;4.99;100.00
37202;BME280;37799;52.390;6.136;2022-12-05T15:00:44;101946.47;;;5.05;100.00
37202;BME280;37799;52.390;6.136;2022-12-05T15:03:22;101945.56;;;5.01;100.00
37202;BME280;37799;52.390;6.136;2022-12-05T15:05:49;101948.94;;;4.96;100.00
37202;BME280;37799;52.390;6.136;2022-12-05T15:08:15;101950.56;;;4.94;100.00
37202;BME280;37799;52.390;6.136;2022-12-05T15:10:41;101953.22;;;4.97;100.00